Time;durP1;ratioP1;P1;durP2;ratioP2;P2;SDS_P1;SDS_P2;PMS_P1;PMS_P2;Temp;Humidity;BMP_temperature;BMP_pressure;BME280_temperature;BME280_humidity;BME280_pressure;Samples;Min_cycle;Max_cycle;Signal;HPM_P1;HPM_P2
2023/01/26 00:02:10;;;;;;;9.38;6.20;;;;;;;12.54;46.74;100150.06;5032449;28;20044;-77
2023/01/26 00:04:35;;;;;;;10.45;7.05;;;;;;;12.51;46.74;100155.38;5032923;28;20605;-77
2023/01/26 00:07:00;;;;;;;8.77;6.18;;;;;;;12.53;47.02;100147.47;5032459;28;20025;-77
2023/01/26 00:09:26;;;;;;;9.50;6.20;;;;;;;12.55;46.76;100143.94;5051713;28;20033;-77
2023/01/26 00:11:52;;;;;;;8.93;6.20;;;;;;;12.54;46.76;100139.59;5052245;28;20608;-77
2023/01/26 00:14:17;;;;;;;9.10;6.45;;;;;;;12.53;46.75;100132.63;5052453;28;20036;-77
2023/01/26 00:16:42;;;;;;;9.60;6.57;;;;;;;12.53;46.62;100122.16;5052291;28;20055;-77
2023/01/26 00:19:08;;;;;;;9.95;7.10;;;;;;;12.55;46.75;100124.78;5041902;28;20083;-78
2023/01/26 00:21:33;;;;;;;8.55;6.22;;;;;;;12.53;46.80;100116.94;5052370;28;20029;-77
2023/01/26 00:23:59;;;;;;;10.57;6.88;;;;;;;12.53;46.85;100111.69;5052122;28;20420;-77
2023/01/26 00:26:26;;;;;;;11.30;7.10;;;;;;;12.52;46.73;100099.50;5052117;28;20458;-76
2023/01/26 00:28:52;;;;;;;9.88;6.35;;;;;;;12.54;46.76;100089.00;5051940;28;20493;-77
2023/01/26 00:31:22;;;;;;;10.35;6.82;;;;;;;12.53;46.67;100085.50;5052205;28;20025;-78
2023/01/26 00:33:48;;;;;;;10.52;6.43;;;;;;;12.52;46.80;100082.91;5052265;28;20032;-77
2023/01/26 00:36:14;;;;;;;11.48;7.68;;;;;;;12.53;46.70;100077.66;5051805;28;20409;-77
2023/01/26 00:38:40;;;;;;;8.57;6.82;;;;;;;12.53;46.62;100074.16;5038894;28;20057;-76
2023/01/26 00:41:06;;;;;;;9.43;6.68;;;;;;;12.55;46.73;100075.03;5034189;28;20033;-77
2023/01/26 00:43:32;;;;;;;9.43;6.40;;;;;;;12.55;46.69;100075.88;5036355;28;20021;-77
2023/01/26 00:45:57;;;;;;;9.48;6.85;;;;;;;12.52;46.68;100072.44;5035779;28;20541;-77
2023/01/26 00:48:23;;;;;;;10.38;6.50;;;;;;;12.53;46.73;100076.78;5046175;28;20029;-77
2023/01/26 00:50:52;;;;;;;10.55;6.60;;;;;;;12.50;46.80;100069.88;5056143;28;20031;-78
2023/01/26 00:53:18;;;;;;;10.32;7.15;;;;;;;12.51;46.77;100068.97;5055702;28;20021;-77
2023/01/26 00:55:43;;;;;;;9.85;6.55;;;;;;;12.52;46.70;100069.81;5037813;28;20041;-76
2023/01/26 00:58:09;;;;;;;8.30;6.03;;;;;;;12.51;46.69;100061.13;5047692;28;20105;-77
2023/01/26 01:00:36;;;;;;;10.32;7.32;;;;;;;12.50;46.79;100067.25;5035560;28;20038;-77
2023/01/26 01:03:03;;;;;;;10.57;6.97;;;;;;;12.52;46.69;100067.22;5038532;28;20074;-77
2023/01/26 01:05:30;;;;;;;10.60;6.82;;;;;;;12.49;46.74;100055.03;5036171;28;20021;-77
2023/01/26 01:07:56;;;;;;;10.77;6.40;;;;;;;12.49;46.81;100057.66;5041513;28;20032;-77
2023/01/26 01:10:22;;;;;;;10.10;6.78;;;;;;;12.48;46.76;100055.91;5055250;28;20025;-76
2023/01/26 01:12:48;;;;;;;9.95;6.55;;;;;;;12.49;46.73;100060.25;5055478;28;20662;-77
2023/01/26 01:15:13;;;;;;;10.73;7.22;;;;;;;12.47;46.76;100054.19;5056368;28;20025;-78
2023/01/26 01:17:39;;;;;;;10.60;6.72;;;;;;;12.49;46.72;100053.28;5051335;28;20022;-77
2023/01/26 01:20:07;;;;;;;11.23;7.20;;;;;;;12.50;46.75;100059.41;5049654;28;20028;-77
2023/01/26 01:22:34;;;;;;;9.73;7.28;;;;;;;12.48;46.69;100050.69;5054941;28;20029;-77
2023/01/26 01:24:59;;;;;;;10.48;6.88;;;;;;;12.47;46.67;100052.47;5055278;28;20025;-77
2023/01/26 01:27:24;;;;;;;11.25;7.35;;;;;;;12.48;46.66;100045.44;5054803;28;20029;-77
2023/01/26 01:29:51;;;;;;;11.00;6.85;;;;;;;12.46;46.84;100042.84;5055101;28;20488;-77
2023/01/26 01:32:17;;;;;;;10.70;7.18;;;;;;;12.47;46.64;100038.50;5055741;28;20035;-77
2023/01/26 01:34:45;;;;;;;10.32;6.88;;;;;;;12.49;46.76;100044.56;5056339;28;20095;-78
2023/01/26 01:37:10;;;;;;;10.38;7.25;;;;;;;12.47;46.72;100054.19;5055983;28;20110;-78
2023/01/26 01:39:36;;;;;;;8.57;6.20;;;;;;;12.47;46.73;100049.84;5019255;28;20493;-77
2023/01/26 01:42:01;;;;;;;10.27;7.28;;;;;;;12.47;46.72;100049.84;5036346;28;20036;-78
2023/01/26 01:44:26;;;;;;;11.63;7.50;;;;;;;12.46;46.61;100045.47;5036580;28;20026;-78
2023/01/26 01:47:02;;;;;;;11.10;7.13;;;;;;;12.44;46.66;100051.63;5036788;28;20489;-78
2023/01/26 01:49:33;;;;;;;11.10;7.22;;;;;;;12.44;46.77;100049.88;5054966;28;20033;-77
2023/01/26 01:52:11;;;;;;;10.63;7.25;;;;;;;12.45;46.56;100051.59;5054708;28;20060;-77
2023/01/26 01:54:44;;;;;;;9.93;7.07;;;;;;;12.43;46.55;100042.03;5055373;28;20112;-78
2023/01/26 01:57:17;;;;;;;10.18;6.75;;;;;;;12.42;46.73;100042.94;5053783;28;20029;-77
2023/01/26 01:59:52;;;;;;;11.20;7.43;;;;;;;12.40;46.80;100047.34;5035132;28;20075;-77
2023/01/26 02:02:18;;;;;;;9.75;6.60;;;;;;;12.44;46.77;100046.38;5034801;28;20389;-78
2023/01/26 02:04:44;;;;;;;10.07;6.78;;;;;;;12.39;46.77;100040.38;5034790;28;20029;-77
2023/01/26 02:07:11;;;;;;;10.10;6.88;;;;;;;12.40;46.77;100049.97;5034501;28;20113;-77
2023/01/26 02:12:26;;;;;;;10.48;7.18;;;;;;;12.41;46.79;100049.94;5055004;28;20040;-77
2023/01/26 02:14:52;;;;;;;9.48;6.40;;;;;;;12.42;46.68;100045.56;5054907;28;20053;-78
2023/01/26 02:17:18;;;;;;;8.90;6.47;;;;;;;12.42;47.00;100046.44;5054789;28;20083;-78
2023/01/26 02:20:03;;;;;;;9.57;6.70;;;;;;;12.43;46.78;100042.03;5045648;28;20033;-77
2023/01/26 02:22:50;;;;;;;8.95;6.38;;;;;;;12.42;46.71;100037.69;5054306;28;20207;-77
2023/01/26 02:25:36;;;;;;;9.80;6.82;;;;;;;12.41;46.71;100038.59;5053580;28;20028;-77
2023/01/26 02:28:02;;;;;;;;;;;;;;;12.44;46.75;100038.53;5054528;28;20528;-78
2023/01/26 02:30:28;;;;;;;9.20;7.03;;;;;;;12.43;46.74;100036.81;5054196;28;19916;-77
2023/01/26 02:32:54;;;;;;;9.50;6.32;;;;;;;12.40;46.62;100039.50;5056238;28;20025;-77
2023/01/26 02:35:20;;;;;;;10.35;6.78;;;;;;;12.38;46.83;100044.75;5055238;28;20032;-78
2023/01/26 02:37:45;;;;;;;9.65;6.75;;;;;;;12.38;46.72;100043.84;5050857;28;20028;-77
2023/01/26 02:40:30;;;;;;;8.35;6.10;;;;;;;12.39;46.71;100050.84;5034095;28;20159;-77
2023/01/26 02:42:55;;;;;;;10.50;7.25;;;;;;;12.35;46.80;100034.34;5034081;28;20520;-78
2023/01/26 02:45:21;;;;;;;10.05;6.28;;;;;;;12.38;46.75;100038.63;5034222;28;20021;-77
2023/01/26 02:47:47;;;;;;;10.38;6.70;;;;;;;12.37;46.76;100047.38;5037448;28;20028;-77
2023/01/26 02:50:13;;;;;;;9.70;6.53;;;;;;;12.35;46.71;100035.19;5053605;28;20021;-77
2023/01/26 02:52:39;;;;;;;9.18;6.07;;;;;;;12.37;46.75;100034.28;5053448;28;20033;-78
2023/01/26 02:55:24;;;;;;;9.77;6.50;;;;;;;12.35;46.73;100035.19;5035529;28;20175;-78
2023/01/26 02:57:52;;;;;;;9.98;6.85;;;;;;;12.33;46.81;100031.72;5049824;28;20121;-77
2023/01/26 03:00:21;;;;;;;9.32;6.75;;;;;;;12.31;46.80;100023.03;5033804;28;20025;-77
2023/01/26 03:02:49;;;;;;;9.35;6.25;;;;;;;12.35;46.75;100029.94;5033846;28;20037;-77
2023/01/26 03:05:14;;;;;;;9.10;6.43;;;;;;;12.36;46.51;100030.81;5035773;28;20036;-78
2023/01/26 03:07:40;;;;;;;10.50;6.80;;;;;;;12.33;46.70;100015.16;5035838;28;20029;-77
2023/01/26 03:10:06;;;;;;;11.30;6.82;;;;;;;12.33;46.79;100020.38;5053437;28;20033;-77
2023/01/26 03:12:32;;;;;;;8.48;5.90;;;;;;;12.31;46.78;100014.31;5053165;28;20052;-77
2023/01/26 03:17:41;;;;;;;10.02;7.13;;;;;;;12.32;46.71;100014.31;5050638;28;20040;-78
2023/01/26 03:28:21;;;;;;;9.80;6.70;;;;;;;12.32;46.84;99997.72;5052858;28;20099;-77
2023/01/26 03:30:51;;;;;;;10.38;7.05;;;;;;;12.32;46.67;99985.53;5052820;28;20017;-77
2023/01/26 03:33:17;;;;;;;9.23;6.15;;;;;;;12.28;46.82;99986.44;5035124;28;20029;-77
2023/01/26 03:35:43;;;;;;;9.02;6.65;;;;;;;12.29;46.71;99987.28;5035180;28;20506;-77
2023/01/26 03:38:08;;;;;;;8.98;6.38;;;;;;;12.28;46.83;99999.53;5046807;28;20121;-77
2023/01/26 03:56:58;;;;;;;8.57;6.00;;;;;;;12.27;46.80;99973.38;5039781;28;20401;-77
2023/01/26 03:59:37;;;;;;;9.50;6.50;;;;;;;12.26;46.83;99974.28;5052750;28;20029;-77
2023/01/26 04:10:17;;;;;;;8.75;5.93;;;;;;;12.22;46.89;99958.59;5052522;28;20412;-77
2023/01/26 04:12:42;;;;;;;8.40;5.70;;;;;;;12.24;46.96;99955.97;5052736;28;20029;-77
2023/01/26 04:23:20;;;;;;;8.00;5.55;;;;;;;12.23;46.91;99946.41;5052520;28;20471;-77
2023/01/26 04:25:47;;;;;;;8.50;5.72;;;;;;;12.25;46.88;99935.91;5052255;28;20029;-77
2023/01/26 04:28:12;;;;;;;8.05;5.47;;;;;;;12.25;46.77;99939.38;5051829;28;20045;-78
2023/01/26 04:30:38;;;;;;;9.82;6.38;;;;;;;12.27;46.78;99932.38;5034088;28;20079;-77
2023/01/26 04:33:03;;;;;;;8.95;5.90;;;;;;;12.26;46.86;99930.66;5052209;28;20454;-78
2023/01/26 04:35:29;;;;;;;8.77;6.18;;;;;;;12.24;46.84;99927.19;5052011;28;20462;-77
2023/01/26 04:37:54;;;;;;;8.90;5.85;;;;;;;12.26;46.75;99929.78;5038066;28;20037;-77
2023/01/26 04:40:20;;;;;;;8.85;5.78;;;;;;;12.24;46.82;99919.34;5032621;28;20017;-78
2023/01/26 04:42:45;;;;;;;7.72;5.82;;;;;;;12.24;46.84;99916.72;5032552;28;20462;-77
2023/01/26 04:45:11;;;;;;;7.85;5.80;;;;;;;12.27;46.60;99916.69;5031972;28;20033;-76
2023/01/26 04:47:36;;;;;;;9.55;6.18;;;;;;;12.24;46.77;99916.72;5043624;28;20074;-77
2023/01/26 04:50:02;;;;;;;9.80;5.88;;;;;;;12.24;46.84;99911.50;5034154;28;20033;-77
2023/01/26 04:52:28;;;;;;;8.38;5.47;;;;;;;12.24;46.87;99906.25;5052068;28;20106;-77
2023/01/26 04:54:53;;;;;;;9.05;6.15;;;;;;;12.25;46.81;99907.13;5051768;28;20017;-77
2023/01/26 04:57:19;;;;;;;8.68;6.10;;;;;;;12.22;46.78;99902.81;5052217;28;20060;-77
2023/01/26 04:59:45;;;;;;;8.30;6.07;;;;;;;12.21;46.79;99891.47;5051788;28;20032;-77
2023/01/26 05:02:10;;;;;;;9.57;5.95;;;;;;;12.21;47.00;99890.63;5052351;28;20039;-77
2023/01/26 05:04:36;;;;;;;9.07;6.22;;;;;;;12.21;46.88;99895.84;5052111;28;20032;-78
2023/01/26 05:07:19;;;;;;;9.38;6.35;;;;;;;12.23;46.88;99896.69;5041301;28;20022;-77
2023/01/26 05:09:45;;;;;;;8.57;5.93;;;;;;;12.22;46.84;99887.97;5052178;28;20029;-78
2023/01/26 05:14:54;;;;;;;8.07;5.57;;;;;;;12.21;46.84;99888.00;5051476;28;20039;-78
2023/01/26 05:17:20;;;;;;;8.73;5.82;;;;;;;12.21;46.87;99885.41;5043275;28;20021;-77
2023/01/26 05:19:45;;;;;;;8.95;5.90;;;;;;;12.19;46.83;99881.91;5050497;28;20028;-77
2023/01/26 05:22:10;;;;;;;9.40;5.88;;;;;;;12.19;46.88;99881.91;5051602;28;20151;-77
2023/01/26 05:24:36;;;;;;;8.82;6.30;;;;;;;12.20;46.84;99875.78;5033850;28;20032;-77
2023/01/26 05:27:19;;;;;;;8.68;5.50;;;;;;;12.20;46.96;99868.81;5051651;28;20025;-77
2023/01/26 05:29:45;;;;;;;8.93;5.45;;;;;;;12.22;46.75;99872.25;5055030;28;20053;-78
2023/01/26 05:32:10;;;;;;;8.48;5.43;;;;;;;12.19;46.92;99861.00;5055751;28;20037;-77
2023/01/26 05:34:36;;;;;;;7.53;5.22;;;;;;;12.19;46.96;99863.59;5055405;28;20031;-77
2023/01/26 05:37:01;;;;;;;8.25;5.28;;;;;;;12.19;47.02;99866.22;5055025;28;20045;-77
2023/01/26 05:39:27;;;;;;;9.00;5.55;;;;;;;12.19;46.92;99859.25;5054881;28;20040;-77
2023/01/26 05:41:55;;;;;;;9.32;5.88;;;;;;;12.17;46.83;99853.19;5055309;28;20025;-77
2023/01/26 05:44:21;;;;;;;9.25;6.03;;;;;;;12.18;46.99;99854.03;5036982;28;20036;-78
2023/01/26 05:46:46;;;;;;;8.38;5.35;;;;;;;12.18;46.94;99854.03;5051467;28;20025;-78
2023/01/26 05:49:12;;;;;;;7.90;5.00;;;;;;;12.17;46.81;99853.19;5035165;28;20044;-78
2023/01/26 05:51:37;;;;;;;7.13;5.13;;;;;;;12.19;46.86;99858.38;5035345;28;20026;-78
2023/01/26 05:54:03;;;;;;;8.93;5.72;;;;;;;12.17;47.00;99853.19;5035162;28;20363;-77
2023/01/26 05:56:28;;;;;;;7.28;4.82;;;;;;;12.18;46.96;99849.69;5051688;28;20036;-78
2023/01/26 05:58:54;;;;;;;7.53;5.03;;;;;;;12.18;46.95;99838.34;5034936;28;20025;-77
2023/01/26 06:01:19;;;;;;;7.30;4.63;;;;;;;12.19;46.99;99840.06;5017832;28;20565;-77
2023/01/26 06:03:44;;;;;;;7.90;5.05;;;;;;;12.15;46.94;99834.03;5036458;28;20494;-77
2023/01/26 06:06:10;;;;;;;7.82;5.00;;;;;;;12.15;46.91;99828.78;5036405;28;20029;-78
2023/01/26 06:08:35;;;;;;;8.60;4.70;;;;;;;12.14;46.87;99836.66;5054877;28;20112;-78
2023/01/26 06:11:01;;;;;;;8.55;5.38;;;;;;;12.17;46.95;99831.38;5056260;28;20025;-78
2023/01/26 06:13:26;;;;;;;7.82;4.95;;;;;;;12.16;46.96;99829.66;5055915;28;20099;-78
2023/01/26 06:15:51;;;;;;;7.60;4.90;;;;;;;12.15;46.99;99827.94;5056213;28;20057;-77
2023/01/26 06:18:17;;;;;;;8.65;5.95;;;;;;;12.16;46.95;99835.75;5039317;28;20446;-77
2023/01/26 06:20:42;;;;;;;7.95;4.65;;;;;;;12.13;46.86;99824.47;5054436;28;20426;-77
2023/01/26 06:23:10;;;;;;;8.27;5.18;;;;;;;12.15;46.98;99833.19;5055004;28;20021;-77
2023/01/26 06:25:38;;;;;;;8.25;5.20;;;;;;;12.15;46.94;99839.25;5054681;28;20025;-77
2023/01/26 06:28:04;;;;;;;7.75;5.28;;;;;;;12.15;46.98;99836.63;5053567;28;20045;-78
2023/01/26 06:30:30;;;;;;;7.75;4.95;;;;;;;12.15;47.20;99833.19;5036697;28;20086;-78
2023/01/26 06:32:56;;;;;;;7.82;4.75;;;;;;;12.13;46.92;99832.31;5054639;28;20466;-78
2023/01/26 06:35:21;;;;;;;7.80;4.97;;;;;;;12.13;46.81;99829.69;5054755;28;20057;-79
2023/01/26 06:37:49;;;;;;;7.97;5.00;;;;;;;12.13;46.98;99830.59;5042751;28;20378;-77
2023/01/26 06:40:15;;;;;;;8.13;5.22;;;;;;;12.10;46.91;99825.38;5034490;28;20033;-77
2023/01/26 06:42:49;;;;;;;7.80;4.88;;;;;;;12.12;47.03;99823.63;5034048;28;20478;-77
2023/01/26 06:45:15;;;;;;;7.88;4.90;;;;;;;12.13;46.84;99824.47;5034314;28;20061;-77
2023/01/26 06:47:48;;;;;;;8.40;5.35;;;;;;;12.10;46.93;99819.31;5044382;28;20039;-77
2023/01/26 06:50:19;;;;;;;8.35;5.35;;;;;;;12.07;46.99;99815.84;5053995;28;20091;-77
2023/01/26 06:52:55;;;;;;;7.60;4.60;;;;;;;12.05;46.88;99817.63;5053683;28;20021;-77
2023/01/26 06:55:33;;;;;;;7.85;4.72;;;;;;;12.10;46.98;99814.09;5053439;28;20021;-77
2023/01/26 06:57:58;;;;;;;8.52;4.97;;;;;;;12.12;47.06;99822.75;5053794;28;20370;-77
2023/01/26 07:00:24;;;;;;;7.95;4.55;;;;;;;12.11;47.04;99815.81;5053902;28;20095;-77
2023/01/26 07:02:49;;;;;;;7.72;4.97;;;;;;;12.12;47.07;99820.13;5053923;28;20076;-77
2023/01/26 07:05:15;;;;;;;7.22;4.57;;;;;;;12.12;46.92;99817.53;5053793;28;20013;-78
2023/01/26 07:07:40;;;;;;;7.07;4.40;;;;;;;12.09;46.96;99807.97;5043713;28;20457;-78
2023/01/26 07:10:06;;;;;;;7.10;4.30;;;;;;;12.10;47.08;99814.09;5036226;28;20018;-77
2023/01/26 07:12:43;;;;;;;7.40;4.40;;;;;;;12.06;46.97;99819.34;5034056;28;20021;-77
2023/01/26 07:15:10;;;;;;;7.22;4.53;;;;;;;12.08;47.04;99822.81;5033703;28;20088;-77
2023/01/26 07:17:37;;;;;;;8.00;4.95;;;;;;;12.07;47.00;99815.84;5042808;28;20503;-78
2023/01/26 07:20:03;;;;;;;7.82;4.47;;;;;;;12.10;47.31;99816.69;5053310;28;20021;-78
2023/01/26 07:22:28;;;;;;;7.38;5.03;;;;;;;12.09;46.95;99823.66;5035573;28;20171;-77
2023/01/26 07:24:54;;;;;;;7.90;4.75;;;;;;;12.10;46.91;99817.53;5053019;28;20171;-77
2023/01/26 07:27:19;;;;;;;8.23;4.65;;;;;;;12.08;46.97;99827.19;5053155;28;20029;-78
2023/01/26 07:29:45;;;;;;;6.60;4.15;;;;;;;12.06;47.01;99808.88;5035121;28;20408;-77
2023/01/26 07:32:11;;;;;;;7.95;4.45;;;;;;;12.03;47.07;99814.16;5053401;28;20538;-78
2023/01/26 07:34:36;;;;;;;7.40;4.75;;;;;;;12.07;47.03;99826.31;5053282;28;20025;-77
2023/01/26 07:37:01;;;;;;;7.55;4.22;;;;;;;12.08;46.93;99828.06;5031087;28;20493;-77
2023/01/26 07:39:27;;;;;;;7.78;4.75;;;;;;;12.06;46.79;99824.59;5015244;28;20029;-77
2023/01/26 07:41:52;;;;;;;8.32;5.00;;;;;;;12.03;47.05;99818.50;5033271;28;20037;-77
2023/01/26 07:44:18;;;;;;;7.50;4.82;;;;;;;12.05;46.95;99817.63;5033163;28;20032;-77
2023/01/26 07:46:43;;;;;;;7.22;4.45;;;;;;;12.08;47.00;99820.22;5034515;28;20021;-77
2023/01/26 07:49:10;;;;;;;7.72;4.75;;;;;;;12.03;47.10;99819.38;5053172;28;20040;-77
2023/01/26 07:51:36;;;;;;;7.55;4.43;;;;;;;12.04;47.00;99821.16;5052354;28;20104;-76
2023/01/26 07:54:02;;;;;;;7.88;5.00;;;;;;;12.05;46.98;99817.63;5052642;28;20404;-77
2023/01/26 07:56:28;;;;;;;7.47;5.05;;;;;;;12.02;46.97;99822.88;5052566;28;20033;-77
2023/01/26 07:58:54;;;;;;;7.45;4.82;;;;;;;12.02;47.14;99822.03;5052589;28;20025;-78
2023/01/26 08:01:20;;;;;;;8.57;4.72;;;;;;;12.02;47.05;99820.25;5052563;28;20053;-77
2023/01/26 08:03:49;;;;;;;7.53;4.53;;;;;;;12.01;47.06;99815.91;5052592;28;20020;-77
2023/01/26 08:06:16;;;;;;;8.13;5.00;;;;;;;12.01;47.00;99810.69;5052593;28;20035;-77
2023/01/26 08:08:42;;;;;;;7.93;4.97;;;;;;;12.02;46.98;99817.63;5035001;28;20028;-77
2023/01/26 08:11:09;;;;;;;7.78;4.40;;;;;;;12.01;47.02;99823.75;5032895;28;20052;-77
2023/01/26 08:13:35;;;;;;;7.45;4.60;;;;;;;11.98;47.09;99815.13;5033055;28;20042;-77
2023/01/26 08:16:08;;;;;;;6.53;4.28;;;;;;;12.00;47.09;99824.66;5032840;28;20404;-77
2023/01/26 08:18:34;;;;;;;6.25;4.00;;;;;;;12.00;47.08;99824.66;5034570;28;20083;-76
2023/01/26 08:20:59;;;;;;;7.72;4.75;;;;;;;11.96;47.10;99817.75;5052252;28;20025;-77
2023/01/26 08:23:25;;;;;;;7.22;4.88;;;;;;;11.98;47.11;99826.44;5052156;28;20037;-77
2023/01/26 08:25:50;;;;;;;7.45;4.20;;;;;;;11.99;47.26;99825.56;5052474;28;20112;-77
2023/01/26 08:28:15;;;;;;;9.40;4.90;;;;;;;12.00;47.17;99827.28;5034140;28;20045;-77
2023/01/26 08:30:41;;;;;;;6.38;4.00;;;;;;;12.00;47.04;99824.66;5052479;28;20033;-77
2023/01/26 08:33:07;;;;;;;7.88;4.63;;;;;;;12.00;47.08;99818.59;5052256;28;20025;-78
2023/01/26 08:35:33;;;;;;;7.63;4.63;;;;;;;12.01;47.04;99829.00;5034321;28;20025;-77
2023/01/26 08:37:59;;;;;;;7.78;4.90;;;;;;;12.01;47.11;99821.16;5041117;28;20516;-78
2023/01/26 08:40:24;;;;;;;8.95;5.57;;;;;;;12.01;47.02;99826.38;5032390;28;20048;-77
2023/01/26 08:42:51;;;;;;;8.35;4.95;;;;;;;11.98;47.14;99829.06;5032655;28;20021;-78
2023/01/26 08:45:16;;;;;;;7.53;4.78;;;;;;;11.98;47.01;99826.44;5032236;28;20022;-78
2023/01/26 08:47:42;;;;;;;7.43;4.50;;;;;;;11.98;47.00;99829.06;5040471;28;20029;-77
2023/01/26 08:50:08;;;;;;;7.38;4.80;;;;;;;12.00;46.92;99829.88;5051708;28;20029;-77
2023/01/26 08:52:33;;;;;;;7.63;4.72;;;;;;;12.00;47.07;99826.44;5051741;28;20021;-77
2023/01/26 08:54:59;;;;;;;7.68;4.75;;;;;;;11.96;47.18;99822.97;5052088;28;20021;-77
2023/01/26 08:57:26;;;;;;;6.90;4.45;;;;;;;12.00;47.08;99826.44;5052351;28;20036;-77
2023/01/26 08:59:51;;;;;;;7.13;4.70;;;;;;;11.98;47.19;99831.69;5052386;28;20124;-77
2023/01/26 09:02:16;;;;;;;7.85;5.25;;;;;;;11.96;47.18;99828.22;5054204;28;20104;-77
2023/01/26 09:04:42;;;;;;;8.73;5.07;;;;;;;11.94;47.05;99835.22;5052780;28;20039;-77
2023/01/26 09:07:07;;;;;;;7.95;4.93;;;;;;;11.95;47.03;99823.88;5051869;28;20025;-78
2023/01/26 09:09:33;;;;;;;7.95;5.25;;;;;;;11.95;46.97;99836.94;5036032;28;20029;-77
2023/01/26 09:11:58;;;;;;;7.43;4.45;;;;;;;11.95;47.01;99821.25;5035966;28;20041;-77
2023/01/26 09:14:24;;;;;;;7.65;4.60;;;;;;;11.95;47.05;99824.75;5035990;28;20035;-77
2023/01/26 09:16:49;;;;;;;7.35;4.95;;;;;;;11.96;46.87;99822.97;5036737;28;20026;-77
2023/01/26 09:19:14;;;;;;;8.73;5.00;;;;;;;11.96;47.11;99817.75;5055701;28;20120;-77
2023/01/26 09:21:40;;;;;;;7.60;4.28;;;;;;;11.93;47.25;99812.59;5055562;28;20043;-76
2023/01/26 09:24:06;;;;;;;7.38;4.55;;;;;;;11.95;47.02;99821.25;5055954;28;20469;-77
2023/01/26 09:26:32;;;;;;;6.88;4.07;;;;;;;11.96;46.94;99817.75;5055481;28;20447;-77
2023/01/26 09:28:57;;;;;;;7.13;4.75;;;;;;;11.95;47.12;99810.78;5055354;28;20044;-77
2023/01/26 09:31:23;;;;;;;7.65;4.80;;;;;;;11.96;47.07;99817.75;5055667;28;20100;-77
2023/01/26 09:33:49;;;;;;;7.00;4.60;;;;;;;11.95;46.95;99816.03;5055757;28;20070;-78
2023/01/26 09:36:15;;;;;;;7.22;4.53;;;;;;;11.95;47.18;99818.66;5055229;28;20029;-76
2023/01/26 09:38:41;;;;;;;7.50;4.57;;;;;;;11.95;47.09;99818.66;5039296;28;20148;-77
2023/01/26 09:41:19;;;;;;;7.90;4.88;;;;;;;11.94;47.09;99814.31;5035206;28;20021;-77
2023/01/26 09:43:56;;;;;;;7.85;4.88;;;;;;;11.94;47.16;99814.31;5035269;28;20206;-77
2023/01/26 09:46:42;;;;;;;7.30;4.65;;;;;;;11.93;47.13;99817.81;5035318;28;20101;-77
2023/01/26 09:49:14;;;;;;;6.82;4.30;;;;;;;11.96;47.20;99817.75;5053567;28;20041;-77
2023/01/26 09:52:09;;;;;;;7.85;4.88;;;;;;;11.95;47.03;99821.25;5054956;28;20037;-76
2023/01/26 09:54:43;;;;;;;7.57;4.75;;;;;;;11.94;47.09;99820.41;5054978;28;20049;-77
2023/01/26 09:57:27;;;;;;;8.35;4.60;;;;;;;11.95;47.10;99816.03;5054593;28;20506;-77
2023/01/26 10:00:20;;;;;;;7.35;4.90;;;;;;;11.95;47.08;99816.03;5055154;28;20028;-77
2023/01/26 10:02:52;;;;;;;7.53;4.82;;;;;;;11.94;47.13;99815.19;5044522;28;20152;-77
2023/01/26 10:05:44;;;;;;;7.75;5.38;;;;;;;11.93;47.07;99815.19;5054655;28;20052;-77
2023/01/26 10:08:16;;;;;;;7.68;4.22;;;;;;;11.93;47.11;99829.13;5025966;28;20116;-77
2023/01/26 10:10:49;;;;;;;7.43;4.50;;;;;;;11.92;47.17;99822.19;5035057;28;20373;-77
2023/01/26 10:13:17;;;;;;;6.30;4.05;;;;;;;11.93;47.04;99823.91;5016389;28;20520;-77
2023/01/26 10:15:50;;;;;;;7.10;3.97;;;;;;;11.94;47.13;99820.41;5034838;28;20032;-76
2023/01/26 10:18:22;;;;;;;7.90;4.40;;;;;;;11.93;47.12;99820.44;5046217;28;20024;-77
2023/01/26 10:20:53;;;;;;;7.07;4.05;;;;;;;11.94;47.14;99827.38;5034902;28;20386;-77
2023/01/26 10:23:24;;;;;;;6.85;4.03;;;;;;;11.93;47.14;99823.91;5034887;28;20029;-78
2023/01/26 10:25:50;;;;;;;7.07;4.22;;;;;;;11.94;47.16;99819.53;5034768;28;20029;-77
2023/01/26 10:28:26;;;;;;;7.43;4.25;;;;;;;11.95;47.12;99827.38;5046083;28;20045;-77
2023/01/26 10:30:52;;;;;;;6.53;4.00;;;;;;;11.92;47.19;99821.31;5054529;28;20037;-77
2023/01/26 10:33:34;;;;;;;6.70;4.20;;;;;;;11.93;47.14;99817.81;5054242;28;20087;-78
2023/01/26 10:36:05;;;;;;;7.00;4.25;;;;;;;11.93;47.31;99818.66;5054446;28;20032;-78
2023/01/26 10:38:36;;;;;;;6.60;4.03;;;;;;;11.95;47.24;99816.03;5054794;28;20060;-78
2023/01/26 10:41:17;;;;;;;6.95;4.07;;;;;;;11.93;47.21;99812.59;5055558;28;20029;-77
2023/01/26 10:44:23;;;;;;;7.45;4.20;;;;;;;11.94;47.21;99814.31;5038560;28;20056;-78
2023/01/26 10:47:05;;;;;;;8.85;4.20;;;;;;;11.92;47.24;99809.09;4955157;29;20038;-78
2023/01/26 10:49:30;;;;;;;6.88;4.47;;;;;;;11.93;47.37;99807.34;4937104;29;20046;-77
2023/01/26 10:52:21;;;;;;;6.82;4.43;;;;;;;11.92;47.28;99806.47;4935947;29;20039;-78
2023/01/26 10:55:11;;;;;;;6.90;4.45;;;;;;;11.92;47.27;99795.19;4935077;29;20117;-77
2023/01/26 10:57:40;;;;;;;6.60;3.92;;;;;;;11.90;47.24;99797.81;4939988;29;20043;-77
2023/01/26 11:00:20;;;;;;;7.35;4.20;;;;;;;11.94;47.25;99790.78;4938227;29;20449;-77
2023/01/26 11:02:54;;;;;;;7.15;4.28;;;;;;;11.92;47.32;99789.94;4953448;29;20035;-76
2023/01/26 11:05:25;;;;;;;6.22;4.00;;;;;;;11.91;47.31;99783.00;4954087;29;20043;-78
2023/01/26 11:07:57;;;;;;;7.57;4.05;;;;;;;11.92;47.26;99784.72;4953956;29;20033;-78
2023/01/26 11:10:30;;;;;;;6.00;3.78;;;;;;;11.93;47.12;99782.06;4953113;29;20082;-77
2023/01/26 11:13:13;;;;;;;6.07;3.88;;;;;;;11.93;47.28;99770.75;4953714;29;20037;-77
2023/01/26 11:15:44;;;;;;;6.45;4.10;;;;;;;11.93;47.20;99765.50;4953564;29;20039;-77
2023/01/26 11:18:11;;;;;;;5.82;3.72;;;;;;;11.93;47.30;99762.91;4953259;29;20118;-77
2023/01/26 11:20:55;;;;;;;6.53;4.15;;;;;;;11.93;47.19;99766.34;4953405;28;20144;-77
2023/01/26 11:23:42;;;;;;;7.18;4.32;;;;;;;11.92;47.27;99758.56;4994952;28;20029;-77
2023/01/26 11:26:45;;;;;;;7.43;4.35;;;;;;;11.93;47.29;99755.06;5052482;28;20044;-77
2023/01/26 11:29:29;;;;;;;6.05;3.78;;;;;;;11.93;47.27;99749.81;5053218;28;20052;-77
2023/01/26 11:32:13;;;;;;;7.05;4.32;;;;;;;11.94;47.19;99751.53;5053126;28;20060;-77
2023/01/26 11:35:05;;;;;;;6.10;3.65;;;;;;;11.94;47.21;99751.53;5053431;28;20109;-77
2023/01/26 11:37:50;;;;;;;5.80;3.63;;;;;;;11.90;47.36;99740.28;5048724;28;20033;-77
2023/01/26 11:40:31;;;;;;;6.50;4.05;;;;;;;11.91;47.18;99741.16;5033095;28;20122;-77
2023/01/26 11:43:18;;;;;;;6.80;4.15;;;;;;;11.93;47.28;99736.75;5033202;28;20493;-77
2023/01/26 11:46:26;;;;;;;5.97;3.67;;;;;;;11.89;47.35;99733.31;5032826;28;20584;-77
2023/01/26 11:49:07;;;;;;;6.15;3.67;;;;;;;11.90;47.27;99729.81;5048391;28;20358;-77
2023/01/26 11:51:56;;;;;;;6.03;3.65;;;;;;;11.90;47.24;99724.59;5052795;28;20397;-77
2023/01/26 11:54:54;;;;;;;5.40;3.30;;;;;;;11.91;47.28;99722.84;5034981;28;20028;-77
2023/01/26 11:57:19;;;;;;;7.05;3.83;;;;;;;11.92;47.34;99717.56;5046986;28;20043;-77
2023/01/26 11:59:51;;;;;;;6.80;4.28;;;;;;;11.93;47.15;99718.44;5052402;28;20033;-77
2023/01/26 12:02:30;;;;;;;6.68;4.05;;;;;;;11.93;47.28;99718.44;5052546;28;20029;-77
2023/01/26 12:05:02;;;;;;;6.55;3.95;;;;;;;11.92;47.24;99712.34;5035047;28;20104;-77
2023/01/26 12:07:50;;;;;;;6.47;3.90;;;;;;;11.92;47.22;99711.50;5049232;28;20017;-77
2023/01/26 12:10:19;;;;;;;6.35;3.88;;;;;;;11.93;47.30;99710.59;5031537;28;20071;-77
2023/01/26 12:12:59;;;;;;;6.40;3.67;;;;;;;11.92;47.26;99698.41;5032864;28;20040;-77
2023/01/26 12:15:31;;;;;;;5.32;3.50;;;;;;;11.94;47.24;99701.84;5032339;28;20121;-77
2023/01/26 12:18:04;;;;;;;5.95;3.70;;;;;;;11.95;47.25;99700.94;5040053;28;20112;-76
2023/01/26 12:20:44;;;;;;;5.78;3.45;;;;;;;11.95;47.27;99701.81;5052458;28;20056;-77
2023/01/26 12:23:09;;;;;;;6.18;3.80;;;;;;;11.96;47.21;99697.44;5052710;28;20028;-77
2023/01/26 12:25:38;;;;;;;6.75;3.67;;;;;;;11.95;47.33;99693.09;5052469;28;20048;-77
2023/01/26 12:28:28;;;;;;;5.97;3.53;;;;;;;11.95;47.25;99682.66;5052169;28;20037;-77
2023/01/26 12:31:09;;;;;;;7.55;3.72;;;;;;;11.95;47.25;99680.91;5052626;28;20163;-77